Address 0x96d037df61b6cbc264f5eab82d3cf25f517f8968

Txn Hash Method
Block
From
To
Value [Txn Fee]
0xe9f05ac0873b30897e626ce4c07b845fc4abb227936d7fd7eac17950a8b8f2e8Deposit54602952022-11-08 3:13:3321 days 51 mins ago0x96d037df61b6cbc264f5eab82d3cf25f517f8968OUT 0x990e9683e6ba5079cdb235838856029a50dad84c0 CRO3.436840
0x264f629ccb0329457e78eaa102e107b2fedb449d6980dfd3cc133319de9f8c7cEnter Pool54602872022-11-08 3:12:4721 days 51 mins ago0x96d037df61b6cbc264f5eab82d3cf25f517f8968OUT 0x7fe4db9063b7dd7ba55313b9c258070bed2c143a0 CRO0.3795250
0x0432e6a2525f09f78d0895c603f6eafec50a1af6c2e0c5fc076749ca17975b8bLeave Pool54602712022-11-08 3:11:1721 days 53 mins ago0x96d037df61b6cbc264f5eab82d3cf25f517f8968OUT 0x7fe4db9063b7dd7ba55313b9c258070bed2c143a0 CRO0.261310
0x53ee4256f90883f5815757d0758d1ca503f80c3ec12a5184854243ec6452e845Deposit54602572022-11-08 3:09:5721 days 54 mins ago0x96d037df61b6cbc264f5eab82d3cf25f517f8968OUT VVS Finance: Craftsman0 CRO0.6851250
0x12c16046937b4e922349bf20f77ced77e2ac2d0ba3d8ff11e3d03f80408aee07Batch Withdraw54602172022-11-08 3:06:1021 days 58 mins ago0x96d037df61b6cbc264f5eab82d3cf25f517f8968OUT 0x990e9683e6ba5079cdb235838856029a50dad84c0 CRO2.4457922422540
0xae150ee52c129501151114c2b9bb255b7f1c08b54a95f451f3ab199b9f97e877Deposit53377522022-10-31 2:11:0829 days 1 hr ago0x96d037df61b6cbc264f5eab82d3cf25f517f8968OUT 0x990e9683e6ba5079cdb235838856029a50dad84c0 CRO3.252020
0x00cba947142ce30b8248e45b0b3be2fc39b428d3de077d552a6a4761d473d9c3Enter Pool53377442022-10-31 2:10:2229 days 1 hr ago0x96d037df61b6cbc264f5eab82d3cf25f517f8968OUT 0x7fe4db9063b7dd7ba55313b9c258070bed2c143a0 CRO0.3044650
0x16a6fd7e6467b84fe2b89d004964404163fdd65a6cb26ec86f95198fb7292502Batch Withdraw53377342022-10-31 2:09:2529 days 1 hr ago0x96d037df61b6cbc264f5eab82d3cf25f517f8968OUT 0x990e9683e6ba5079cdb235838856029a50dad84c0 CRO2.5055350
0xf97e5ac4e4ff4c910679f7e69d2cb883bfcd041a01b0f5e2db18052a73aa82f6Deposit53377262022-10-31 2:08:4029 days 1 hr ago0x96d037df61b6cbc264f5eab82d3cf25f517f8968OUT 0x990e9683e6ba5079cdb235838856029a50dad84c0 CRO1.141950
0x54858386c36246e2b725036edea313d5812ffe1a5076de7f9e664504bf0e0833Harvest Boost An...53374332022-10-31 1:40:5829 days 2 hrs ago0x96d037df61b6cbc264f5eab82d3cf25f517f8968OUT 0xa77c281adf1b963a7593999dd0d977347b570a820 CRO1.4011060262410
0x5be5253d518731128c4901119e498373e26f8a2fea8f91c913e38c278cf6b6b8Deposit53374262022-10-31 1:40:1929 days 2 hrs ago0x96d037df61b6cbc264f5eab82d3cf25f517f8968OUT VVS Finance: Craftsman0 CRO0.7601250
0x9a53ccc5ce7adee3d6a934c91808345428e2841fadd4b2bc2da359ec932651deDeposit52310332022-10-24 2:05:3136 days 1 hr ago0x96d037df61b6cbc264f5eab82d3cf25f517f8968OUT 0x990e9683e6ba5079cdb235838856029a50dad84c0 CRO3.436840
0x8d29d56fdf180ed480e649b2daafe68edbb55aa305b27af09002a562f6c2137fEnter Pool52310152022-10-24 2:03:4936 days 2 hrs ago0x96d037df61b6cbc264f5eab82d3cf25f517f8968OUT 0x7fe4db9063b7dd7ba55313b9c258070bed2c143a0 CRO0.3795250
0xee1e99958b6edb8ebe1811a15fc863f19abd3e0c4a0d9c4cbd274f78f2ff4275Deposit52310022022-10-24 2:02:3636 days 2 hrs ago0x96d037df61b6cbc264f5eab82d3cf25f517f8968OUT VVS Finance: Craftsman0 CRO0.6851250
0xe1dbb006d6ed9aeb407475195ac9321c39f1a02b81c9ccbe060eee434ce33235Leave Pool51081872022-10-15 23:56:4844 days 4 hrs ago0x96d037df61b6cbc264f5eab82d3cf25f517f8968OUT 0x7fe4db9063b7dd7ba55313b9c258070bed2c143a0 CRO0.261310
0x4d1afabbc790f2cc9ba934d50e7e3ca59d723fa65aaef64aa8f22db846ee0322Batch Withdraw51081562022-10-15 23:53:5244 days 4 hrs ago0x96d037df61b6cbc264f5eab82d3cf25f517f8968OUT 0x990e9683e6ba5079cdb235838856029a50dad84c0 CRO2.5055350
0x05c5b045e81705902708e7b54ecd0cd223c45b6ce0c906c0b125caca5f66cf30Harvest Boost An...51081442022-10-15 23:52:4544 days 4 hrs ago0x96d037df61b6cbc264f5eab82d3cf25f517f8968OUT 0xa77c281adf1b963a7593999dd0d977347b570a820 CRO1.4041277124910
0x422119d5c42cc094b5fa4aee9969cefa19daaa917c09e9a3af239a1298e66b8aDeposit51081312022-10-15 23:51:3144 days 4 hrs ago0x96d037df61b6cbc264f5eab82d3cf25f517f8968OUT 0x990e9683e6ba5079cdb235838856029a50dad84c0 CRO1.141950
0x25dd38477172c2aacd41755fc67e842f37ad183897b3c9410e166b5b4f44ce49Deposit51081282022-10-15 23:51:1444 days 4 hrs ago0x96d037df61b6cbc264f5eab82d3cf25f517f8968OUT VVS Finance: Craftsman0 CRO0.7601250
0xfeb2c0d52059d5fd2b1ba5eb9a975db5f63e6999cd9475c8fff772c3f526b6e1Deposit48831252022-10-01 5:03:1258 days 23 hrs ago0x96d037df61b6cbc264f5eab82d3cf25f517f8968OUT 0x990e9683e6ba5079cdb235838856029a50dad84c0 CRO2.861450
0x384b30277d8b6fd54cd871d1464ddc175605589cf25e7c144ce8e917ea0ae70cEnter Pool48831142022-10-01 5:02:0958 days 23 hrs ago0x96d037df61b6cbc264f5eab82d3cf25f517f8968OUT 0x7fe4db9063b7dd7ba55313b9c258070bed2c143a0 CRO0.3795250
0xa2f717c97c8130b8c0a4d81cf7c9b98dd5a2902fe7b35461f990ab32d3786555Leave Pool48439132022-09-28 15:11:4361 days 12 hrs ago0x96d037df61b6cbc264f5eab82d3cf25f517f8968OUT 0x7fe4db9063b7dd7ba55313b9c258070bed2c143a0 CRO0.261310
0x4ced260cfe68bdeb695d7f3b47b196560a8468db1a7e3e4ae8841f631b323c16Batch Withdraw48438872022-09-28 15:09:1561 days 12 hrs ago0x96d037df61b6cbc264f5eab82d3cf25f517f8968OUT 0x990e9683e6ba5079cdb235838856029a50dad84c0 CRO2.941260
0x1a9cc0791b6f8a9b802f86d8927fe187edd90b558d9ab2558d1c486c018a2891Swap Exact Token...48438682022-09-28 15:07:2861 days 12 hrs ago0x96d037df61b6cbc264f5eab82d3cf25f517f8968OUT VVS Finance: Router0 CRO1.4415556877590
0x9342bd9ba4133b790dd5ba0bfd38a7d5ab6cd9b515c916ef9ac40dc465ac8540Approve48438582022-09-28 15:06:3161 days 12 hrs ago0x96d037df61b6cbc264f5eab82d3cf25f517f8968OUT 0x8d58088d4e8ffe75a8b6357ba5ff17b93b9126400 CRO0.2320268094520
[ Download CSV Export 
Latest 1 internal transaction
Parent Txn Hash Block From To Value
0x7b23a50cd3206e49a94e051e4874c67fc01cbad2a9d7e7698a20bedc7a16f03d14558192022-02-12 16:28:25289 days 11 hrs ago VVS Finance: Router0x96d037df61b6cbc264f5eab82d3cf25f517f89681.74019790805879458 CRO
[ Download CSV Export 
Loading

Contract Name:
0

Compiler Version
0

Optimization Enabled:
0

Other Settings:
-NA-
Block Transaction Gas Used Reward
Age Block Fee Address BC Fee Address Voting Power Jailed Incoming
Block Uncle Number Difficulty Gas Used Reward
Loading
Make sure to use the "Vote Down" button for any spammy posts, and the "Vote Up" for interesting conversations.